Time;durP1;ratioP1;P1;durP2;ratioP2;P2;SDS_P1;SDS_P2;PMS_P1;PMS_P2;Temp;Humidity;BMP_temperature;BMP_pressure;BME280_temperature;BME280_humidity;BME280_pressure;Samples;Min_cycle;Max_cycle;Signal;HPM_P1;HPM_P2
2023/01/27 00:01:52;;;;;;;14.00;3.40;;;6.00;99.90;;;;;;4800517;29;20194;-87
2023/01/27 00:04:18;;;;;;;12.93;4.20;;;5.90;99.90;;;;;;4802435;29;20222;-87
2023/01/27 00:06:43;;;;;;;7.20;3.13;;;5.90;99.90;;;;;;4808032;29;20198;-87
2023/01/27 00:09:10;;;;;;;6.60;3.97;;;5.90;99.90;;;;;;4799013;29;20269;-87
2023/01/27 00:14:19;;;;;;;10.18;3.17;;;5.90;99.90;;;;;;4802817;29;20225;-87
2023/01/27 00:16:48;;;;;;;6.90;3.53;;;5.90;99.90;;;;;;4803426;29;20198;-84
2023/01/27 00:19:18;;;;;;;9.27;3.33;;;5.90;76.20;;;;;;4801058;29;20279;-85
2023/01/27 00:24:37;;;;;;;8.55;2.88;;;5.80;1.00;;;;;;4804414;29;20260;-85
2023/01/27 00:27:08;;;;;;;6.60;3.33;;;5.80;1.00;;;;;;4799150;29;20197;-86
2023/01/27 00:29:34;;;;;;;9.00;3.92;;;5.80;1.00;;;;;;4803736;29;20257;-85
2023/01/27 00:34:46;;;;;;;7.85;3.03;;;5.80;1.00;;;;;;4808037;29;20259;-85
2023/01/27 00:37:14;;;;;;;10.07;3.40;;;5.70;1.00;;;;;;4802399;29;20664;-85
2023/01/27 00:39:40;;;;;;;7.32;2.60;;;5.70;1.00;;;;;;4791227;29;20207;-85
2023/01/27 00:42:06;;;;;;;9.57;3.60;;;5.60;1.00;;;;;;4800465;29;20201;-86
2023/01/27 00:44:34;;;;;;;14.40;3.70;;;5.60;1.00;;;;;;4802540;29;20876;-85
2023/01/27 00:47:00;;;;;;;7.38;4.18;;;5.60;99.90;;;;;;4801231;29;20710;-86
2023/01/27 00:49:26;;;;;;;8.20;4.90;;;5.50;99.90;;;;;;4802980;29;20233;-86
2023/01/27 00:51:51;;;;;;;14.73;6.37;;;5.50;99.90;;;;;;4802117;29;20640;-85
2023/01/27 00:54:17;;;;;;;11.73;5.87;;;5.50;99.90;;;;;;4800932;29;20214;-85
2023/01/27 00:56:43;;;;;;;14.30;6.23;;;5.50;99.90;;;;;;4798021;29;20292;-85
2023/01/27 00:59:09;;;;;;;12.38;5.95;;;5.60;99.90;;;;;;4797276;29;20186;-86
2023/01/27 01:01:35;;;;;;;6.90;4.73;;;5.60;99.90;;;;;;4801978;29;20197;-86
2023/01/27 01:04:01;;;;;;;6.20;4.47;;;5.60;99.90;;;;;;4800334;29;20214;-85
2023/01/27 01:06:27;;;;;;;9.15;3.47;;;5.70;99.90;;;;;;4802815;29;20679;-86
2023/01/27 01:08:55;;;;;;;10.90;3.30;;;5.70;99.90;;;;;;4806856;29;20190;-85
2023/01/27 01:11:21;;;;;;;6.22;3.20;;;5.70;99.90;;;;;;4801128;29;20383;-85
2023/01/27 01:13:49;;;;;;;5.40;2.70;;;5.70;99.90;;;;;;4800975;29;20302;-86
2023/01/27 01:16:20;;;;;;;10.52;3.42;;;5.70;53.20;;;;;;4800737;29;20623;-86
2023/01/27 01:18:47;;;;;;;7.70;2.72;;;5.70;1.00;;;;;;4805122;29;20198;-85
2023/01/27 01:21:13;;;;;;;8.90;2.70;;;5.70;1.00;;;;;;4801302;29;20199;-85
2023/01/27 01:23:40;;;;;;;5.22;2.95;;;5.70;1.00;;;;;;4808624;29;20214;-86
2023/01/27 01:26:08;;;;;;;6.18;2.88;;;5.70;27.00;;;;;;4803605;29;20298;-86
2023/01/27 01:28:35;;;;;;;8.77;3.05;;;5.70;32.50;;;;;;4801850;29;20323;-86
2023/01/27 01:31:19;;;;;;;10.70;4.20;;;5.70;8.00;;;;;;4800575;29;20222;-85
2023/01/27 01:33:46;;;;;;;10.07;2.55;;;5.70;39.90;;;;;;4798538;29;20578;-85
2023/01/27 01:36:14;;;;;;;6.57;2.33;;;5.70;50.40;;;;;;4804650;29;20194;-86
2023/01/27 01:38:40;;;;;;;8.55;3.17;;;5.70;46.30;;;;;;4804728;29;20194;-86
2023/01/27 01:41:09;;;;;;;5.53;2.87;;;5.70;99.90;;;;;;4804044;29;20198;-85
2023/01/27 01:43:34;;;;;;;6.20;2.80;;;5.70;99.90;;;;;;4807000;29;20230;-86
2023/01/27 01:46:01;;;;;;;9.23;4.50;;;5.70;99.90;;;;;;4805347;29;20227;-85
2023/01/27 01:48:34;;;;;;;8.48;3.55;;;5.70;99.90;;;;;;4806008;29;20194;-86
2023/01/27 01:51:13;;;;;;;5.60;3.13;;;5.70;99.90;;;;;;4800350;29;20748;-86
2023/01/27 01:53:47;;;;;;;10.40;3.60;;;5.70;99.90;;;;;;4804682;29;20206;-86
2023/01/27 01:56:19;;;;;;;8.05;2.70;;;5.70;99.90;;;;;;4810318;29;20562;-86
2023/01/27 01:58:47;;;;;;;9.50;3.50;;;5.80;99.90;;;;;;4802246;29;20209;-85
2023/01/27 02:01:14;;;;;;;6.80;3.42;;;5.80;99.90;;;;;;4804190;29;20195;-86
2023/01/27 02:03:43;;;;;;;6.63;3.22;;;5.70;99.90;;;;;;4806149;29;20225;-86
2023/01/27 02:06:10;;;;;;;7.60;3.90;;;5.70;99.90;;;;;;4806648;29;20265;-86
2023/01/27 02:08:43;;;;;;;10.65;4.13;;;5.70;99.90;;;;;;4806119;29;20693;-85
2023/01/27 02:11:09;;;;;;;5.43;4.30;;;5.70;99.90;;;;;;4804279;29;20222;-85
2023/01/27 02:13:35;;;;;;;12.50;4.00;;;5.70;99.90;;;;;;4806172;29;20685;-86
2023/01/27 02:16:01;;;;;;;7.90;3.87;;;5.70;99.90;;;;;;4806290;29;20187;-85
2023/01/27 02:18:28;;;;;;;7.13;3.92;;;5.60;99.90;;;;;;4804605;29;20475;-86
2023/01/27 02:20:54;;;;;;;5.78;3.95;;;5.70;99.90;;;;;;4806601;29;20198;-85
2023/01/27 02:23:51;;;;;;;10.63;5.15;;;5.70;99.90;;;;;;4802867;29;20635;-85
2023/01/27 02:26:41;;;;;;;7.88;4.97;;;5.70;99.90;;;;;;4815343;29;20339;-86
2023/01/27 02:29:13;;;;;;;9.00;4.03;;;5.60;99.90;;;;;;4806353;29;20678;-86
2023/01/27 02:31:51;;;;;;;11.23;4.18;;;5.60;99.90;;;;;;4807298;29;20675;-85
2023/01/27 02:34:22;;;;;;;6.53;3.90;;;5.60;99.90;;;;;;4809011;29;20338;-86
2023/01/27 02:36:59;;;;;;;17.42;3.85;;;5.60;99.90;;;;;;4804272;29;20572;-86
2023/01/27 02:39:33;;;;;;;17.48;4.22;;;5.60;99.90;;;;;;4804122;29;20239;-85
2023/01/27 02:42:04;;;;;;;11.75;4.32;;;5.60;99.90;;;;;;4802243;29;20285;-86
2023/01/27 02:44:31;;;;;;;14.32;4.70;;;5.50;1.00;;;;;;4812857;29;20726;-86
2023/01/27 02:46:59;;;;;;;10.00;5.13;;;5.50;1.00;;;;;;4810504;29;20565;-86
2023/01/27 02:49:24;;;;;;;10.20;4.65;;;5.50;1.00;;;;;;4809481;29;20220;-86
2023/01/27 02:51:50;;;;;;;9.00;5.27;;;5.50;1.00;;;;;;4807867;29;20194;-86
2023/01/27 02:54:18;;;;;;;6.20;3.73;;;5.50;1.00;;;;;;4806200;29;20626;-85
2023/01/27 02:56:57;;;;;;;12.20;4.30;;;5.50;1.00;;;;;;4801422;29;20186;-85
2023/01/27 02:59:22;;;;;;;14.43;4.50;;;5.50;1.00;;;;;;4803428;29;20201;-86
2023/01/27 03:01:48;;;;;;;9.87;5.10;;;5.50;1.00;;;;;;4804086;29;20186;-86
2023/01/27 03:04:14;;;;;;;11.13;3.97;;;5.50;1.00;;;;;;4805994;29;20206;-85
2023/01/27 03:06:47;;;;;;;14.13;5.63;;;5.50;1.00;;;;;;4803311;29;20247;-86
2023/01/27 03:09:13;;;;;;;13.63;5.60;;;5.50;1.00;;;;;;4802880;29;20255;-86
2023/01/27 03:20:13;;;;;;;20.98;10.07;;;5.50;1.00;;;;;;4806309;29;20623;-86
2023/01/27 03:22:38;;;;;;;17.33;10.40;;;5.40;1.00;;;;;;4803855;29;20305;-86
2023/01/27 03:25:10;;;;;;;19.13;11.53;;;5.40;1.00;;;;;;4807142;29;20472;-86
2023/01/27 03:27:41;;;;;;;21.55;12.98;;;5.40;1.00;;;;;;4816193;29;20198;-85
2023/01/27 03:30:08;;;;;;;27.75;12.70;;;5.30;99.90;;;;;;4816169;29;20238;-86
2023/01/27 03:32:37;;;;;;;20.40;12.40;;;5.30;99.90;;;;;;4804600;29;20210;-86
2023/01/27 03:35:03;;;;;;;21.95;11.65;;;5.30;99.90;;;;;;4805775;29;20194;-85
2023/01/27 03:48:35;;;;;;;19.25;11.90;;;5.20;99.90;;;;;;4810300;29;20600;-86
2023/01/27 03:51:05;;;;;;;16.65;10.43;;;5.20;99.90;;;;;;4804613;29;20214;-86
2023/01/27 03:53:36;;;;;;;13.60;8.70;;;5.10;99.90;;;;;;4804092;29;20566;-85
2023/01/27 03:56:04;;;;;;;21.33;11.15;;;5.00;1.00;;;;;;4803323;29;20660;-85
2023/01/27 03:58:35;;;;;;;23.13;11.70;;;4.90;1.00;;;;;;4800316;29;20202;-86
2023/01/27 04:01:25;;;;;;;12.90;8.95;;;4.80;1.00;;;;;;4803999;29;20193;-86
2023/01/27 04:07:01;;;;;;;17.80;9.40;;;4.80;99.90;;;;;;4811125;29;20274;-86
2023/01/27 04:09:38;;;;;;;16.83;8.43;;;4.80;99.90;;;;;;4799543;29;20194;-86
2023/01/27 04:12:06;;;;;;;12.88;7.50;;;4.80;99.90;;;;;;4802931;29;20202;-85
2023/01/27 04:14:37;;;;;;;15.88;8.98;;;4.80;99.90;;;;;;4800321;29;20206;-85
2023/01/27 04:17:15;;;;;;;16.50;8.20;;;4.80;99.90;;;;;;4802782;29;20820;-86
2023/01/27 04:19:40;;;;;;;12.00;8.25;;;4.80;99.90;;;;;;4802383;29;20657;-86
2023/01/27 04:22:07;;;;;;;18.93;8.43;;;4.80;81.80;;;;;;4810013;29;20320;-85
2023/01/27 04:24:35;;;;;;;10.35;7.30;;;4.80;99.90;;;;;;4803769;29;20290;-85
2023/01/27 04:27:12;;;;;;;10.45;6.65;;;4.80;1.00;;;;;;4802763;29;20247;-86
2023/01/27 04:29:57;;;;;;;10.55;6.75;;;4.80;22.70;;;;;;4803994;29;20217;-86
2023/01/27 04:32:22;;;;;;;10.70;7.70;;;4.80;15.90;;;;;;4795590;29;20214;-86
2023/01/27 04:34:50;;;;;;;13.23;7.33;;;4.80;1.00;;;;;;4801841;29;20178;-86
2023/01/27 04:37:16;;;;;;;14.10;7.40;;;4.70;14.50;;;;;;4804733;29;20197;-85
2023/01/27 04:39:44;;;;;;;11.27;7.57;;;4.70;20.50;;;;;;4802390;29;20186;-86
2023/01/27 04:42:15;;;;;;;12.35;8.15;;;4.70;41.90;;;;;;4801453;29;20285;-85
2023/01/27 04:44:40;;;;;;;10.40;6.43;;;4.70;99.90;;;;;;4804267;29;20209;-86
2023/01/27 04:47:06;;;;;;;13.00;8.93;;;4.80;99.90;;;;;;4801528;29;20194;-86
2023/01/27 04:49:32;;;;;;;11.50;6.80;;;4.70;39.20;;;;;;4804796;29;20198;-86
2023/01/27 04:52:02;;;;;;;9.10;6.13;;;4.70;92.30;;;;;;4816364;29;20225;-86
2023/01/27 04:54:28;;;;;;;11.65;6.85;;;4.70;99.90;;;;;;4798330;29;20225;-86
2023/01/27 04:56:59;;;;;;;11.03;7.80;;;4.70;99.90;;;;;;4803912;29;20190;-85
2023/01/27 04:59:25;;;;;;;12.57;6.60;;;4.70;99.90;;;;;;4803243;29;20190;-86
2023/01/27 05:01:50;;;;;;;14.10;8.40;;;4.70;99.90;;;;;;4802537;29;20255;-86
2023/01/27 05:04:16;;;;;;;11.30;7.33;;;4.70;99.90;;;;;;4800579;29;20471;-86
2023/01/27 05:06:44;;;;;;;14.07;8.97;;;4.80;99.90;;;;;;4802694;29;20459;-86
2023/01/27 05:09:09;;;;;;;18.63;9.77;;;4.80;99.90;;;;;;4801557;29;20255;-86
2023/01/27 05:11:35;;;;;;;19.20;10.60;;;4.80;99.90;;;;;;4802676;29;20637;-86
2023/01/27 05:14:01;;;;;;;20.03;12.03;;;4.80;1.00;;;;;;4802169;29;20214;-86
2023/01/27 05:16:26;;;;;;;18.00;10.40;;;4.80;1.00;;;;;;4803484;29;20208;-86
2023/01/27 05:18:52;;;;;;;18.27;10.70;;;4.80;1.00;;;;;;4799615;29;20289;-85
2023/01/27 05:21:23;;;;;;;21.57;11.30;;;4.90;1.00;;;;;;4801386;29;20202;-86
2023/01/27 05:23:49;;;;;;;23.08;12.13;;;4.90;1.00;;;;;;4801734;29;20926;-86
2023/01/27 05:26:23;;;;;;;17.40;11.13;;;4.90;1.00;;;;;;4801746;29;20265;-86
2023/01/27 05:28:50;;;;;;;22.23;11.23;;;4.90;1.00;;;;;;4801545;29;20578;-86
2023/01/27 05:31:18;;;;;;;17.33;10.10;;;4.90;99.90;;;;;;4801416;29;20695;-86
2023/01/27 05:33:45;;;;;;;16.60;11.00;;;4.90;1.00;;;;;;4803740;29;20241;-86
2023/01/27 05:36:17;;;;;;;17.15;11.70;;;4.90;1.00;;;;;;4802458;29;20175;-86
2023/01/27 05:38:43;;;;;;;16.73;11.25;;;4.90;1.00;;;;;;4800859;29;20246;-86
2023/01/27 05:41:11;;;;;;;19.73;13.00;;;4.90;1.00;;;;;;4802326;29;20190;-86
2023/01/27 05:43:38;;;;;;;20.42;11.95;;;4.90;1.00;;;;;;4800343;29;20524;-85
2023/01/27 05:46:13;;;;;;;20.30;11.85;;;4.90;1.00;;;;;;4804982;29;20193;-86
2023/01/27 05:48:44;;;;;;;20.45;11.90;;;4.90;1.00;;;;;;4803444;29;20237;-86
2023/01/27 05:51:14;;;;;;;20.30;11.57;;;4.90;1.00;;;;;;4802049;29;20214;-86
2023/01/27 05:53:44;;;;;;;19.80;10.77;;;4.80;1.00;;;;;;4801358;29;20229;-86
2023/01/27 05:56:16;;;;;;;23.02;12.20;;;4.80;1.00;;;;;;4791145;29;20250;-86
2023/01/27 05:58:42;;;;;;;21.23;12.63;;;4.70;1.00;;;;;;4806253;29;20190;-86
2023/01/27 06:01:16;;;;;;;21.80;11.50;;;4.70;1.00;;;;;;4799113;29;20187;-86
2023/01/27 06:03:43;;;;;;;19.83;12.40;;;4.60;1.00;;;;;;4802842;29;20475;-86
2023/01/27 06:06:10;;;;;;;16.70;10.93;;;4.60;1.00;;;;;;4802589;29;20193;-86
2023/01/27 06:08:39;;;;;;;21.20;11.15;;;4.50;1.00;;;;;;4805875;29;20199;-86
2023/01/27 06:11:06;;;;;;;19.67;11.30;;;4.50;1.00;;;;;;4803223;29;20211;-86
2023/01/27 06:13:34;;;;;;;23.73;10.18;;;4.50;71.90;;;;;;4801653;29;20636;-86
2023/01/27 06:16:01;;;;;;;25.52;11.48;;;4.60;99.90;;;;;;4800032;29;20194;-86
2023/01/27 06:18:26;;;;;;;16.95;10.73;;;4.60;99.90;;;;;;4801192;29;20179;-86
2023/01/27 06:20:52;;;;;;;22.37;12.27;;;4.60;99.90;;;;;;4801013;29;20202;-85
2023/01/27 06:23:17;;;;;;;18.80;11.33;;;4.70;99.90;;;;;;4804732;29;20684;-86
2023/01/27 06:25:46;;;;;;;19.57;10.90;;;4.70;99.90;;;;;;4807276;29;20250;-86
2023/01/27 06:28:12;;;;;;;18.52;10.60;;;4.70;99.90;;;;;;4810466;29;20229;-86
2023/01/27 06:30:39;;;;;;;18.02;10.23;;;4.80;99.90;;;;;;4803430;29;20222;-85
2023/01/27 06:33:05;;;;;;;19.25;10.63;;;4.80;99.90;;;;;;4803954;29;20210;-86
2023/01/27 06:35:32;;;;;;;19.85;10.70;;;4.80;99.90;;;;;;4804955;29;20218;-86
2023/01/27 06:37:59;;;;;;;17.85;10.65;;;4.90;99.90;;;;;;4805633;29;20273;-85
2023/01/27 06:40:25;;;;;;;20.75;10.73;;;4.90;99.90;;;;;;4803621;29;20288;-86
2023/01/27 06:42:51;;;;;;;19.65;10.18;;;4.90;99.90;;;;;;4811611;29;20221;-86
2023/01/27 06:45:22;;;;;;;19.27;11.23;;;4.90;99.90;;;;;;4802563;29;20225;-85
2023/01/27 06:47:57;;;;;;;20.10;11.38;;;4.90;99.90;;;;;;4819607;29;20277;-86
2023/01/27 06:50:25;;;;;;;17.77;10.02;;;4.90;99.90;;;;;;4805373;29;20228;-86
2023/01/27 06:52:51;;;;;;;24.85;10.55;;;4.90;99.90;;;;;;4806034;29;20222;-87
2023/01/27 06:55:23;;;;;;;17.53;10.20;;;4.90;99.90;;;;;;4809577;29;20266;-86
2023/01/27 06:57:48;;;;;;;20.70;12.68;;;4.90;99.90;;;;;;4817559;29;20446;-87
2023/01/27 07:00:15;;;;;;;24.03;12.70;;;4.90;99.90;;;;;;4815664;29;20262;-86
2023/01/27 07:02:41;;;;;;;16.85;10.63;;;4.90;99.90;;;;;;4812100;29;20285;-86
2023/01/27 07:05:07;;;;;;;25.45;11.93;;;4.90;99.90;;;;;;4809057;29;20196;-86
2023/01/27 07:07:33;;;;;;;17.13;10.30;;;4.90;99.90;;;;;;4817147;29;20197;-86
2023/01/27 07:10:05;;;;;;;21.27;10.37;;;4.90;99.90;;;;;;4816600;29;20205;-86
2023/01/27 07:12:36;;;;;;;18.63;10.25;;;4.90;99.90;;;;;;4809794;29;20218;-87
2023/01/27 07:15:05;;;;;;;20.85;11.20;;;4.90;99.90;;;;;;4808426;29;20218;-86
2023/01/27 07:17:31;;;;;;;23.20;11.48;;;4.90;99.90;;;;;;4806721;29;20179;-86
2023/01/27 07:19:57;;;;;;;17.60;10.57;;;4.90;99.90;;;;;;4810124;29;20254;-87
2023/01/27 07:22:23;;;;;;;19.23;11.10;;;5.00;99.90;;;;;;4810351;29;20621;-87
2023/01/27 07:24:48;;;;;;;20.13;11.67;;;5.10;99.90;;;;;;4804959;29;20210;-88
2023/01/27 07:27:14;;;;;;;18.23;10.30;;;5.20;99.90;;;;;;4811215;29;20285;-85
2023/01/27 07:29:39;;;;;;;19.70;9.90;;;5.20;99.90;;;;;;4812263;29;20198;-86
2023/01/27 07:32:08;;;;;;;21.10;10.77;;;5.30;99.90;;;;;;4825463;29;20423;-85
2023/01/27 07:34:34;;;;;;;20.20;12.35;;;5.30;99.90;;;;;;4805917;29;20262;-86
2023/01/27 07:36:59;;;;;;;21.30;10.93;;;5.30;99.90;;;;;;4805967;29;20613;-85
2023/01/27 07:39:27;;;;;;;20.10;9.73;;;5.20;99.90;;;;;;4807474;29;20796;-85
2023/01/27 07:42:22;;;;;;;20.15;10.88;;;5.20;99.90;;;;;;4802205;29;20622;-88
2023/01/27 07:44:47;;;;;;;18.33;9.40;;;5.30;99.90;;;;;;4801870;29;20235;-88
2023/01/27 07:47:13;;;;;;;17.07;11.00;;;5.30;99.90;;;;;;4804979;29;20635;-88
2023/01/27 07:49:38;;;;;;;21.47;10.90;;;5.30;45.40;;;;;;4794645;29;20332;-88
2023/01/27 07:52:04;;;;;;;16.77;10.23;;;5.30;11.80;;;;;;4805273;29;20243;-86
2023/01/27 07:54:29;;;;;;;18.93;11.00;;;5.30;1.00;;;;;;4799723;29;20206;-87
2023/01/27 07:56:57;;;;;;;17.87;11.63;;;5.20;1.00;;;;;;4797397;29;20187;-87
2023/01/27 07:59:25;;;;;;;18.08;11.80;;;5.30;28.80;;;;;;4806211;29;20194;-87
2023/01/27 08:01:51;;;;;;;16.80;10.80;;;5.30;6.50;;;;;;4804354;29;20949;-87
2023/01/27 08:04:16;;;;;;;19.70;11.33;;;5.30;1.00;;;;;;4805228;29;20209;-87
2023/01/27 08:06:42;;;;;;;17.17;9.97;;;5.20;1.00;;;;;;4807455;29;20190;-87
2023/01/27 08:09:11;;;;;;;16.77;9.20;;;5.20;1.00;;;;;;4807693;29;20538;-87
2023/01/27 08:11:36;;;;;;;19.35;9.55;;;5.20;1.00;;;;;;4805598;29;20218;-87
2023/01/27 08:14:02;;;;;;;15.97;10.23;;;5.20;16.20;;;;;;4802407;29;20217;-87
2023/01/27 08:16:28;;;;;;;11.10;8.27;;;5.20;38.00;;;;;;4801725;29;20203;-87
2023/01/27 08:18:53;;;;;;;16.20;8.93;;;5.30;22.70;;;;;;4801710;29;20202;-87
2023/01/27 08:21:19;;;;;;;14.40;9.87;;;5.30;22.10;;;;;;4801614;29;20190;-85
2023/01/27 08:24:29;;;;;;;15.80;8.97;;;5.30;25.40;;;;;;4803569;29;20494;-87
2023/01/27 08:27:00;;;;;;;15.80;8.88;;;5.40;1.00;;;;;;4804181;29;20186;-87
2023/01/27 08:29:33;;;;;;;13.02;9.05;;;5.50;1.00;;;;;;4805017;29;20202;-87
2023/01/27 08:35:03;;;;;;;18.42;9.43;;;5.80;1.00;;;;;;5007439;24;20240;-87
2023/01/27 08:37:52;;;;;;;13.05;9.30;;;5.80;1.00;;;;;;4821241;29;20209;-87
2023/01/27 08:40:32;;;;;;;13.52;8.93;;;5.90;1.00;;;;;;4815590;29;20253;-88
2023/01/27 08:43:14;;;;;;;13.68;9.60;;;5.90;1.00;;;;;;4821968;29;20574;-87
2023/01/27 08:45:40;;;;;;;14.20;9.75;;;6.00;1.00;;;;;;4820518;29;20214;-87
2023/01/27 08:48:25;;;;;;;12.90;8.50;;;6.00;99.90;;;;;;4821297;29;20254;-88
2023/01/27 08:51:12;;;;;;;12.77;9.45;;;6.00;1.00;;;;;;4821576;29;20241;-87
2023/01/27 08:53:48;;;;;;;14.07;9.43;;;6.10;99.90;;;;;;4819054;29;20923;-87
2023/01/27 08:56:29;;;;;;;15.75;9.25;;;6.10;99.90;;;;;;4820176;29;20212;-87
2023/01/27 08:59:18;;;;;;;15.18;10.15;;;6.20;99.90;;;;;;4816378;29;20177;-87
2023/01/27 09:01:53;;;;;;;14.57;9.07;;;6.30;99.90;;;;;;4819732;29;20197;-87
2023/01/27 09:04:45;;;;;;;13.65;9.05;;;6.30;99.90;;;;;;4817539;29;20220;-87
2023/01/27 09:07:20;;;;;;;15.85;9.85;;;6.30;99.90;;;;;;4812497;29;20198;-88
2023/01/27 09:09:58;;;;;;;16.17;9.80;;;6.30;99.90;;;;;;4818411;29;20212;-88
2023/01/27 09:13:08;;;;;;;13.75;9.60;;;6.30;1.00;;;;;;4818255;29;20232;-88
2023/01/27 09:15:50;;;;;;;12.90;9.63;;;6.30;1.00;;;;;;4820310;29;20190;-88
2023/01/27 09:18:32;;;;;;;14.00;9.25;;;6.30;1.00;;;;;;4819848;29;20190;-87
2023/01/27 09:21:04;;;;;;;14.93;9.15;;;6.30;1.00;;;;;;4817111;29;20253;-88
2023/01/27 09:23:41;;;;;;;12.82;10.00;;;6.20;99.90;;;;;;4818584;29;20676;-88
2023/01/27 09:26:06;;;;;;;13.35;9.35;;;6.20;1.00;;;;;;4818255;29;20280;-87
2023/01/27 09:28:44;;;;;;;15.20;9.90;;;6.20;99.90;;;;;;4821233;29;20304;-88
2023/01/27 09:31:10;;;;;;;16.25;10.88;;;6.20;1.00;;;;;;4818193;29;20435;-88
2023/01/27 09:33:37;;;;;;;16.20;10.37;;;6.20;1.00;;;;;;4820414;29;20559;-87
2023/01/27 09:36:10;;;;;;;15.23;10.15;;;6.30;1.00;;;;;;4820299;29;20227;-87
2023/01/27 09:38:55;;;;;;;14.32;10.40;;;6.30;1.00;;;;;;4811474;29;20239;-87
2023/01/27 09:42:22;;;;;;;15.85;10.05;;;6.30;1.00;;;;;;4817601;29;20200;-88
2023/01/27 09:44:59;;;;;;;14.63;11.45;;;6.30;1.00;;;;;;4815030;29;20563;-88
2023/01/27 09:47:48;;;;;;;14.55;10.50;;;6.30;1.00;;;;;;4818717;29;20230;-88
2023/01/27 09:50:35;;;;;;;13.75;10.40;;;6.30;1.00;;;;;;4814189;29;20217;-88
2023/01/27 09:53:13;;;;;;;15.43;11.38;;;6.30;1.00;;;;;;4829384;29;20213;-87
2023/01/27 09:56:06;;;;;;;15.13;11.43;;;6.30;1.00;;;;;;4818164;29;20589;-88
2023/01/27 09:58:59;;;;;;;16.00;10.40;;;6.30;1.00;;;;;;4821961;29;20194;-87
2023/01/27 10:02:06;;;;;;;16.63;10.63;;;6.30;1.00;;;;;;4822628;29;20205;-88
2023/01/27 10:05:13;;;;;;;12.82;10.13;;;6.30;1.00;;;;;;4819950;29;20221;-87
2023/01/27 10:08:03;;;;;;;14.05;10.13;;;6.30;1.00;;;;;;4819793;29;20280;-88
2023/01/27 10:10:42;;;;;;;16.70;11.05;;;6.40;1.00;;;;;;4816053;29;20595;-88
2023/01/27 10:13:15;;;;;;;15.00;10.80;;;6.40;1.00;;;;;;4821513;29;20627;-88
2023/01/27 10:15:59;;;;;;;15.05;11.35;;;6.50;99.90;;;;;;4821451;29;20209;-88
2023/01/27 10:18:46;;;;;;;16.85;10.77;;;6.50;99.90;;;;;;4818832;29;20194;-88
2023/01/27 10:21:27;;;;;;;14.13;10.38;;;6.50;99.90;;;;;;4820931;29;20209;-88
2023/01/27 10:24:26;;;;;;;12.95;10.30;;;6.50;99.90;;;;;;4823383;29;20213;-88
2023/01/27 10:27:10;;;;;;;14.38;11.05;;;6.50;99.90;;;;;;4820565;29;20573;-87
2023/01/27 10:29:43;;;;;;;14.95;10.50;;;6.50;99.90;;;;;;4822250;29;20701;-88
2023/01/27 10:32:23;;;;;;;15.05;11.30;;;6.60;99.90;;;;;;4819962;29;20608;-87
2023/01/27 10:35:21;;;;;;;13.70;10.50;;;6.70;1.00;;;;;;4823414;29;20213;-87
2023/01/27 10:38:19;;;;;;;15.73;10.75;;;6.90;99.90;;;;;;4819003;29;21003;-87
2023/01/27 10:40:50;;;;;;;14.52;11.32;;;7.00;99.90;;;;;;4822713;29;20228;-87
2023/01/27 10:43:28;;;;;;;15.70;12.18;;;7.10;1.00;;;;;;4819919;29;20660;-88
2023/01/27 10:45:59;;;;;;;16.50;10.52;;;7.30;1.00;;;;;;4822072;29;20276;-88
2023/01/27 10:48:37;;;;;;;14.43;11.45;;;7.30;99.90;;;;;;4821442;29;20208;-88
2023/01/27 10:51:18;;;;;;;15.00;12.25;;;7.30;99.90;;;;;;4818877;29;20225;-89
2023/01/27 10:53:56;;;;;;;16.02;11.75;;;7.30;99.90;;;;;;4820576;29;20551;-88
2023/01/27 10:56:41;;;;;;;14.48;10.88;;;7.30;99.90;;;;;;4817874;29;20197;-88
2023/01/27 10:59:22;;;;;;;14.85;11.60;;;7.30;99.90;;;;;;4826632;29;20265;-85
2023/01/27 11:01:53;;;;;;;17.40;13.85;;;7.30;99.90;;;;;;4819440;29;20189;-86
2023/01/27 11:04:39;;;;;;;15.80;11.83;;;7.40;1.00;;;;;;4821195;29;20298;-88
2023/01/27 11:07:05;;;;;;;13.87;10.77;;;7.50;1.00;;;;;;4819703;29;20451;-87
2023/01/27 11:09:47;;;;;;;16.20;12.30;;;7.60;99.90;;;;;;4817926;29;20845;-87
2023/01/27 11:12:14;;;;;;;19.03;13.73;;;7.60;99.90;;;;;;4820436;29;20462;-88
2023/01/27 11:14:48;;;;;;;16.90;15.03;;;7.60;1.00;;;;;;4821307;29;20477;-88
2023/01/27 11:17:38;;;;;;;13.38;11.05;;;7.50;1.00;;;;;;4823968;29;20442;-87
2023/01/27 11:20:31;;;;;;;15.30;11.18;;;7.50;1.00;;;;;;4820052;29;20205;-87
2023/01/27 11:23:08;;;;;;;13.43;11.80;;;7.40;1.00;;;;;;4834320;29;20300;-87
2023/01/27 11:26:13;;;;;;;13.15;10.07;;;7.40;1.00;;;;;;4819946;29;20458;-88
2023/01/27 11:28:54;;;;;;;14.10;11.80;;;7.40;1.00;;;;;;4818703;29;20201;-87
2023/01/27 11:31:41;;;;;;;12.33;9.70;;;7.30;1.00;;;;;;4820125;29;20274;-87
2023/01/27 11:34:22;;;;;;;12.18;9.55;;;7.30;1.00;;;;;;4819580;29;20478;-87
2023/01/27 11:36:49;;;;;;;11.40;8.82;;;7.30;1.00;;;;;;4821341;29;20193;-87
2023/01/27 11:39:15;;;;;;;14.13;8.80;;;7.40;1.00;;;;;;4811353;29;20194;-88
2023/01/27 11:44:45;;;;;;;11.00;8.30;;;7.50;1.00;;;;;;5438426;24;20506;-87
2023/01/27 11:47:26;;;;;;;11.23;8.00;;;7.60;99.90;;;;;;4821983;29;20233;-87
2023/01/27 11:49:56;;;;;;;12.73;9.52;;;7.50;99.90;;;;;;4812664;29;20217;-87
2023/01/27 11:52:31;;;;;;;11.50;9.32;;;7.50;99.90;;;;;;4800596;29;20205;-87
2023/01/27 11:55:15;;;;;;;9.63;8.45;;;7.50;99.90;;;;;;4778291;29;20190;-87
2023/01/27 11:57:48;;;;;;;11.23;8.88;;;7.40;99.90;;;;;;4807867;29;20592;-88
2023/01/27 12:00:30;;;;;;;12.40;9.32;;;7.40;1.00;;;;;;4795713;29;20691;-88
2023/01/27 12:02:59;;;;;;;12.18;8.40;;;7.40;1.00;;;;;;4783366;29;20704;-87
2023/01/27 12:05:32;;;;;;;10.15;7.50;;;7.30;1.00;;;;;;4801342;29;20198;-88
2023/01/27 12:08:00;;;;;;;11.90;8.67;;;7.20;99.90;;;;;;4797334;29;20195;-87
2023/01/27 12:10:33;;;;;;;10.40;7.88;;;7.20;1.00;;;;;;4783787;29;20475;-87
2023/01/27 12:13:24;;;;;;;11.75;8.85;;;7.20;1.00;;;;;;4783663;29;20297;-87
2023/01/27 12:15:59;;;;;;;9.82;7.68;;;7.10;1.00;;;;;;4800907;29;20752;-87
2023/01/27 12:18:25;;;;;;;7.80;6.87;;;7.20;1.00;;;;;;4787753;29;20213;-87
2023/01/27 12:21:04;;;;;;;12.27;9.32;;;7.10;1.00;;;;;;4802268;29;20447;-87
2023/01/27 12:23:36;;;;;;;11.13;9.00;;;7.10;1.00;;;;;;4797406;29;20558;-87
2023/01/27 12:26:08;;;;;;;14.57;9.20;;;7.10;1.00;;;;;;4802998;29;20250;-87
2023/01/27 12:28:50;;;;;;;15.85;10.95;;;7.20;1.00;;;;;;4783451;29;20278;-88
2023/01/27 12:31:29;;;;;;;11.80;9.30;;;7.30;1.00;;;;;;4800297;29;20259;-88
2023/01/27 12:34:03;;;;;;;11.67;8.10;;;7.30;1.00;;;;;;4797266;29;20467;-87
2023/01/27 12:36:38;;;;;;;15.50;10.47;;;7.30;1.00;;;;;;4804259;29;20423;-87
2023/01/27 12:39:03;;;;;;;14.65;10.88;;;7.30;1.00;;;;;;4800427;29;20467;-87
2023/01/27 12:41:35;;;;;;;10.10;8.53;;;7.30;1.00;;;;;;4786008;29;20261;-87
2023/01/27 12:44:16;;;;;;;12.73;8.15;;;7.30;1.00;;;;;;4799280;29;20560;-87
2023/01/27 12:47:05;;;;;;;14.98;10.30;;;7.30;1.00;;;;;;4795241;29;20215;-87
2023/01/27 12:49:39;;;;;;;12.88;9.45;;;7.30;1.00;;;;;;4802373;29;20198;-87
2023/01/27 12:52:19;;;;;;;12.57;9.32;;;7.30;1.00;;;;;;4801875;29;20193;-87
2023/01/27 12:54:45;;;;;;;12.20;9.50;;;7.30;99.90;;;;;;4802071;29;20182;-87
2023/01/27 12:57:18;;;;;;;12.87;8.83;;;7.20;99.90;;;;;;4788171;29;20420;-87
2023/01/27 12:59:56;;;;;;;14.38;8.68;;;7.20;99.90;;;;;;4801594;29;20451;-86
2023/01/27 13:02:32;;;;;;;10.70;8.60;;;7.20;1.00;;;;;;4802912;29;20194;-86
2023/01/27 13:05:02;;;;;;;13.90;9.05;;;7.20;1.00;;;;;;4796587;29;20566;-87
2023/01/27 13:07:51;;;;;;;10.50;7.90;;;7.10;1.00;;;;;;4784990;29;20706;-87
2023/01/27 13:10:24;;;;;;;14.00;9.38;;;7.10;1.00;;;;;;4781750;29;20250;-87
2023/01/27 13:12:53;;;;;;;15.57;10.43;;;7.00;1.00;;;;;;4923462;24;20234;-86
2023/01/27 13:15:21;;;;;;;13.20;10.00;;;6.90;1.00;;;;;;4806112;29;20209;-85
2023/01/27 13:17:50;;;;;;;15.35;10.90;;;6.90;1.00;;;;;;4820799;29;20458;-86
2023/01/27 13:20:27;;;;;;;15.90;10.63;;;6.90;99.90;;;;;;4817389;29;20270;-86
2023/01/27 13:23:07;;;;;;;15.57;11.32;;;6.80;99.90;;;;;;4819188;29;21355;-86
2023/01/27 13:25:41;;;;;;;15.00;9.27;;;6.80;99.90;;;;;;4818073;29;20246;-86
2023/01/27 13:28:10;;;;;;;13.77;9.95;;;6.80;1.00;;;;;;4820431;29;20248;-86
2023/01/27 13:37:30;;;;;;;13.40;8.70;;;6.70;99.90;;;;;;5071323;27;20904;-88
2023/01/27 13:42:07;;;;;;;10.30;7.93;;;6.50;1.00;;;;;;5079014;27;20633;-87
2023/01/27 13:44:46;;;;;;;12.13;8.57;;;6.40;1.00;;;;;;5047968;28;20217;-86
2023/01/27 13:47:51;;;;;;;13.20;9.00;;;6.40;99.90;;;;;;5043207;28;20189;-86
2023/01/27 13:50:29;;;;;;;13.05;9.10;;;6.40;1.00;;;;;;5057291;28;20217;-86
2023/01/27 13:53:00;;;;;;;10.93;7.35;;;6.50;1.00;;;;;;5064025;28;20244;-87
2023/01/27 13:55:55;;;;;;;12.38;8.20;;;6.40;1.00;;;;;;5069384;28;20185;-86
2023/01/27 13:58:38;;;;;;;12.18;9.25;;;6.50;1.00;;;;;;5063911;28;20548;-86
2023/01/27 14:01:32;;;;;;;13.00;8.98;;;6.50;99.90;;;;;;5072640;28;20188;-87
2023/01/27 14:04:10;;;;;;;13.35;10.57;;;6.50;99.90;;;;;;5048522;28;20683;-87